Terminal Aerodrome Forecast
Issued by NWS Charleston, WV

Current Version | Previous Version | Text Only | Print | Product List | Glossary Off
Versions: 1 2 3 4 5 6 7 8 9 10 11 12 13 14 15 16 17 18 19 20 21 22 23

000
FTUS41 KRLX 300800 AAA
TAFCRW
TAF AMD
KCRW 300804Z 3008/0106 00000KT 1/2SM FG VV001
     FM301300 00000KT 2SM BR SCT002
     FM301400 VRB03KT P6SM SKC
     FM301600 26006KT P6SM FEW045
     FM302300 26004KT P6SM BKN045=

USA.gov is the U.S. government's official web portal to all federal, state and local government web resources and services.